Winnipeg, Manitoba

4:18 PM CDT on August 29, 2015 (GMT -0500)
Winnipeg International | | Change Station
CLOSE
Current Station
Airport
Location: Winnipeg,
Elevation: 784 ft
Nearby Weather Stations

Elev 784 ft 49.90 °N, 97.23 °W | Updated 18 minutes ago

Overcast
Overcast
73 °F
Feels Like 73 °F
N
16
Wind Variable Wind from SSE

Today
High -- | Low -- °F
--% Chance of Precip.
Yesterday
High -- | Low -- °F
Precip. -- in
6:39 AM 8:19 PM
Full, 100% visible
Pressure 29.82 in
Visibility 8.0 miles
Clouds Few 1000 ft
Mostly Cloudy 17000 ft
Overcast 20000 ft
Dew Point 68 °F
Humidity 83%
Rainfall 0.00 in
Snow Depth Not available.
UV 1 out of 12
Pollen Not available.
Air Quality Not available.
Flu Activity Not available.
METAR CYWG 292100Z 16014KT 8SM FEW010 BKN170 OVC200 23/20 A2981 RMK CF2AC4CI2 SLP097 DENSITY ALT 1900FT
Pressure 29.82 in
Visibility 8.0 miles
Clouds Few 1000 ft
Mostly Cloudy 17000 ft
Overcast 20000 ft
Dew Point 68 °F
Humidity 83%
Rainfall 0.00 in
Snow Depth Not available.
UV 1 out of 12
Pollen Not available.
Air Quality Not available.
Flu Activity Not available.
METAR CYWG 292100Z 16014KT 8SM FEW010 BKN170 OVC200 23/20 A2981 RMK CF2AC4CI2 SLP097 DENSITY ALT 1900FT

10-Day Weather Forecast

×

Almanac

Astronomy

Aug. 29, 2015 Rise Set
Actual Time
Civil Twilight
Nautical Twilight
Astronomical Twilight
Moon
Length of Visible Light
Length of Day
Tomorrow will be .
, % of the Moon is Illuminated

Today's Extremes

Country Highs Country Lows

Community

WunderPhotos

Upload Photos

1,850,802 photos uploaded!

WunderBlogs® & News

Nearby

Air Quality

  Air Quality AQ Index Pollutant
Not available.

Snow Depth

Station Depth Elevation

Earthquake Activity

City Distance Mag. Time & Date
Minimum magnitude displayed is 2.5.

Coastal Water Temperatures

Place Temperature

Stations

Nearby Weather Stations

Station Location Temp. Windchill Dew Point Humidity Wind Precip. Elev Updated Type